sensor_id;sensor_type;location;lat;lon;timestamp;pressure;altitude;pressure_sealevel;temperature;humidity
6218;BME280;3142;48.206;11.550;2023-04-01T00:00:44;94560.34;;;9.49;67.80
6218;BME280;3142;48.206;11.550;2023-04-01T00:03:12;94547.94;;;9.45;68.08
6218;BME280;3142;48.206;11.550;2023-04-01T00:05:38;94559.84;;;9.41;68.46
6218;BME280;3142;48.206;11.550;2023-04-01T00:08:05;94547.00;;;9.39;67.76
6218;BME280;3142;48.206;11.550;2023-04-01T00:10:32;94555.34;;;9.48;67.80
6218;BME280;3142;48.206;11.550;2023-04-01T00:12:58;94547.28;;;9.49;67.66
6218;BME280;3142;48.206;11.550;2023-04-01T00:15:25;94536.63;;;9.51;68.08
6218;BME280;3142;48.206;11.550;2023-04-01T00:17:51;94533.78;;;9.53;67.48
6218;BME280;3142;48.206;11.550;2023-04-01T00:20:19;94532.63;;;9.48;67.60
6218;BME280;3142;48.206;11.550;2023-04-01T00:22:46;94527.41;;;9.48;68.23
6218;BME280;3142;48.206;11.550;2023-04-01T00:25:13;94520.00;;;9.45;68.49
6218;BME280;3142;48.206;11.550;2023-04-01T00:27:40;94523.63;;;9.44;67.69
6218;BME280;3142;48.206;11.550;2023-04-01T00:30:07;94523.63;;;9.44;68.45
6218;BME280;3142;48.206;11.550;2023-04-01T00:32:34;94521.13;;;9.38;68.63
6218;BME280;3142;48.206;11.550;2023-04-01T00:35:01;94527.16;;;9.38;68.20
6218;BME280;3142;48.206;11.550;2023-04-01T00:37:28;94521.94;;;9.38;68.62
6218;BME280;3142;48.206;11.550;2023-04-01T00:39:55;94518.88;;;9.41;68.30
6218;BME280;3142;48.206;11.550;2023-04-01T00:42:22;94521.25;;;9.43;68.07
6218;BME280;3142;48.206;11.550;2023-04-01T00:44:50;94525.69;;;9.42;68.16
6218;BME280;3142;48.206;11.550;2023-04-01T00:47:17;94524.19;;;9.35;68.02
6218;BME280;3142;48.206;11.550;2023-04-01T00:49:46;94518.97;;;9.35;68.37
6218;BME280;3142;48.206;11.550;2023-04-01T00:52:17;94523.25;;;9.29;69.56
6218;BME280;3142;48.206;11.550;2023-04-01T00:54:48;94519.38;;;9.32;69.57
6218;BME280;3142;48.206;11.550;2023-04-01T00:57:19;94521.59;;;9.35;68.83
6218;BME280;3142;48.206;11.550;2023-04-01T00:59:49;94528.84;;;9.33;69.54
6218;BME280;3142;48.206;11.550;2023-04-01T01:02:18;94524.84;;;9.30;68.69
6218;BME280;3142;48.206;11.550;2023-04-01T01:04:44;94528.03;;;9.32;69.31
6218;BME280;3142;48.206;11.550;2023-04-01T01:07:18;94514.16;;;9.32;68.63
6218;BME280;3142;48.206;11.550;2023-04-01T01:09:56;94510.91;;;9.36;68.65
6218;BME280;3142;48.206;11.550;2023-04-01T01:12:31;94537.59;;;9.38;68.30
6218;BME280;3142;48.206;11.550;2023-04-01T01:15:07;94528.50;;;9.41;67.67
6218;BME280;3142;48.206;11.550;2023-04-01T01:17:45;94509.91;;;9.37;68.01
6218;BME280;3142;48.206;11.550;2023-04-01T01:20:27;94524.19;;;9.35;68.29
6218;BME280;3142;48.206;11.550;2023-04-01T01:23:19;94527.94;;;9.39;68.82
6218;BME280;3142;48.206;11.550;2023-04-01T01:25:58;94516.94;;;9.37;69.81
6218;BME280;3142;48.206;11.550;2023-04-01T01:28:36;94513.38;;;9.31;69.62
6218;BME280;3142;48.206;11.550;2023-04-01T01:31:16;94532.59;;;9.37;69.95
6218;BME280;3142;48.206;11.550;2023-04-01T01:34:06;94522.00;;;9.32;69.83
6218;BME280;3142;48.206;11.550;2023-04-01T01:36:40;94510.13;;;9.36;69.25
6218;BME280;3142;48.206;11.550;2023-04-01T01:39:11;94523.63;;;9.33;69.79
6218;BME280;3142;48.206;11.550;2023-04-01T01:41:39;94508.06;;;9.38;68.76
6218;BME280;3142;48.206;11.550;2023-04-01T01:44:11;94519.88;;;9.40;68.47
6218;BME280;3142;48.206;11.550;2023-04-01T01:46:41;94501.84;;;9.39;68.62
6218;BME280;3142;48.206;11.550;2023-04-01T01:49:09;94499.44;;;9.37;68.53
6218;BME280;3142;48.206;11.550;2023-04-01T01:51:37;94505.91;;;9.35;68.75
6218;BME280;3142;48.206;11.550;2023-04-01T01:54:05;94500.81;;;9.40;68.78
6218;BME280;3142;48.206;11.550;2023-04-01T01:56:32;94506.84;;;9.40;68.74
6218;BME280;3142;48.206;11.550;2023-04-01T01:59:03;94511.84;;;9.42;68.39
6218;BME280;3142;48.206;11.550;2023-04-01T02:01:35;94505.03;;;9.41;67.99
6218;BME280;3142;48.206;11.550;2023-04-01T02:04:04;94500.81;;;9.40;68.92
6218;BME280;3142;48.206;11.550;2023-04-01T02:06:34;94527.16;;;9.38;67.62
6218;BME280;3142;48.206;11.550;2023-04-01T02:09:06;94514.53;;;9.35;68.13
6218;BME280;3142;48.206;11.550;2023-04-01T02:11:39;94520.00;;;9.34;68.34
6218;BME280;3142;48.206;11.550;2023-04-01T02:14:10;94523.75;;;9.38;67.80
6218;BME280;3142;48.206;11.550;2023-04-01T02:16:42;94518.28;;;9.39;67.59
6218;BME280;3142;48.206;11.550;2023-04-01T02:19:11;94519.53;;;9.37;67.81
6218;BME280;3142;48.206;11.550;2023-04-01T02:21:40;94522.00;;;9.32;68.30
6218;BME280;3142;48.206;11.550;2023-04-01T02:24:12;94526.81;;;9.35;68.05
6218;BME280;3142;48.206;11.550;2023-04-01T02:26:40;94520.41;;;9.31;67.24
6218;BME280;3142;48.206;11.550;2023-04-01T02:29:08;94526.41;;;9.31;67.24
6218;BME280;3142;48.206;11.550;2023-04-01T02:31:35;94522.66;;;9.27;67.12
6218;BME280;3142;48.206;11.550;2023-04-01T02:34:02;94521.66;;;9.28;67.80
6218;BME280;3142;48.206;11.550;2023-04-01T02:36:29;94525.22;;;9.34;67.23
6218;BME280;3142;48.206;11.550;2023-04-01T02:38:57;94519.63;;;9.30;67.26
6218;BME280;3142;48.206;11.550;2023-04-01T02:41:28;94531.06;;;9.29;67.22
6218;BME280;3142;48.206;11.550;2023-04-01T02:43:55;94537.88;;;9.30;67.98
6218;BME280;3142;48.206;11.550;2023-04-01T02:46:22;94559.19;;;9.27;67.63
6218;BME280;3142;48.206;11.550;2023-04-01T02:48:49;94528.69;;;9.28;67.69
6218;BME280;3142;48.206;11.550;2023-04-01T02:51:16;94531.88;;;9.30;67.73
6218;BME280;3142;48.206;11.550;2023-04-01T02:53:42;94532.31;;;9.27;67.98
6218;BME280;3142;48.206;11.550;2023-04-01T02:56:09;94535.28;;;9.30;67.15
6218;BME280;3142;48.206;11.550;2023-04-01T02:58:37;94540.94;;;9.27;67.65
6218;BME280;3142;48.206;11.550;2023-04-01T03:01:03;94541.50;;;9.29;68.42
6218;BME280;3142;48.206;11.550;2023-04-01T03:03:30;94554.56;;;9.29;68.43
6218;BME280;3142;48.206;11.550;2023-04-01T03:05:57;94537.75;;;9.25;67.83
6218;BME280;3142;48.206;11.550;2023-04-01T03:08:25;94536.06;;;9.31;67.84
6218;BME280;3142;48.206;11.550;2023-04-01T03:10:51;94545.13;;;9.28;68.09
6218;BME280;3142;48.206;11.550;2023-04-01T03:13:18;94547.75;;;9.28;68.72
6218;BME280;3142;48.206;11.550;2023-04-01T03:15:45;94539.13;;;9.28;68.52
6218;BME280;3142;48.206;11.550;2023-04-01T03:18:12;94547.75;;;9.28;67.67
6218;BME280;3142;48.206;11.550;2023-04-01T03:20:38;94554.22;;;9.26;67.81
6218;BME280;3142;48.206;11.550;2023-04-01T03:23:05;94547.63;;;9.23;67.89
6218;BME280;3142;48.206;11.550;2023-04-01T03:25:31;94540.25;;;9.20;67.82
6218;BME280;3142;48.206;11.550;2023-04-01T03:27:58;94533.78;;;9.23;67.84
6218;BME280;3142;48.206;11.550;2023-04-01T03:30:25;94553.28;;;9.20;67.67
6218;BME280;3142;48.206;11.550;2023-04-01T03:32:53;94547.47;;;9.18;67.42
6218;BME280;3142;48.206;11.550;2023-04-01T03:35:19;94564.94;;;9.17;67.62
6218;BME280;3142;48.206;11.550;2023-04-01T03:37:46;94554.31;;;9.19;67.74
6218;BME280;3142;48.206;11.550;2023-04-01T03:40:12;94556.63;;;9.09;68.14
6218;BME280;3142;48.206;11.550;2023-04-01T03:42:39;94568.06;;;9.08;68.42
6218;BME280;3142;48.206;11.550;2023-04-01T03:45:06;94559.00;;;9.10;67.74
6218;BME280;3142;48.206;11.550;2023-04-01T03:47:32;94569.31;;;9.05;68.67
6218;BME280;3142;48.206;11.550;2023-04-01T03:50:00;94567.50;;;9.06;68.76
6218;BME280;3142;48.206;11.550;2023-04-01T03:52:27;94575.97;;;9.01;67.44
6218;BME280;3142;48.206;11.550;2023-04-01T03:54:53;94569.03;;;8.95;67.90
6218;BME280;3142;48.206;11.550;2023-04-01T03:57:20;94569.03;;;8.95;68.92
6218;BME280;3142;48.206;11.550;2023-04-01T03:59:46;94568.56;;;8.98;68.83
6218;BME280;3142;48.206;11.550;2023-04-01T04:02:13;94580.03;;;8.97;68.78
6218;BME280;3142;48.206;11.550;2023-04-01T04:04:39;94575.81;;;8.96;69.19
6218;BME280;3142;48.206;11.550;2023-04-01T04:07:07;94574.00;;;8.97;68.64
6218;BME280;3142;48.206;11.550;2023-04-01T04:09:33;94585.25;;;8.97;68.34
6218;BME280;3142;48.206;11.550;2023-04-01T04:12:00;94584.00;;;9.00;68.96
6218;BME280;3142;48.206;11.550;2023-04-01T04:14:27;94572.66;;;8.94;69.19
6218;BME280;3142;48.206;11.550;2023-04-01T04:16:53;94592.78;;;8.87;69.22
6218;BME280;3142;48.206;11.550;2023-04-01T04:19:20;94580.53;;;8.87;69.73
6218;BME280;3142;48.206;11.550;2023-04-01T04:21:46;94572.69;;;8.87;70.07
6218;BME280;3142;48.206;11.550;2023-04-01T04:24:14;94580.09;;;8.90;70.43
6218;BME280;3142;48.206;11.550;2023-04-01T04:26:40;94574.47;;;8.94;69.77
6218;BME280;3142;48.206;11.550;2023-04-01T04:29:07;94578.31;;;8.91;70.19
6218;BME280;3142;48.206;11.550;2023-04-01T04:31:33;94566.25;;;8.90;69.06
6218;BME280;3142;48.206;11.550;2023-04-01T04:34:00;94574.88;;;8.90;69.54
6218;BME280;3142;48.206;11.550;2023-04-01T04:36:27;94577.13;;;8.87;69.47
6218;BME280;3142;48.206;11.550;2023-04-01T04:38:53;94578.31;;;8.91;69.33
6218;BME280;3142;48.206;11.550;2023-04-01T04:41:21;94584.66;;;8.95;70.05
6218;BME280;3142;48.206;11.550;2023-04-01T04:43:50;94579.44;;;8.95;69.88
6218;BME280;3142;48.206;11.550;2023-04-01T04:46:17;94595.53;;;8.92;70.20
6218;BME280;3142;48.206;11.550;2023-04-01T04:48:43;94592.72;;;8.94;70.08
6218;BME280;3142;48.206;11.550;2023-04-01T04:51:13;94584.44;;;8.97;69.88
6218;BME280;3142;48.206;11.550;2023-04-01T04:53:40;94587.41;;;9.00;70.15
6218;BME280;3142;48.206;11.550;2023-04-01T04:56:07;94589.00;;;9.01;70.31
6218;BME280;3142;48.206;11.550;2023-04-01T04:58:34;94602.72;;;8.97;70.04
6218;BME280;3142;48.206;11.550;2023-04-01T05:01:05;94600.91;;;8.97;70.34
6218;BME280;3142;48.206;11.550;2023-04-01T05:03:32;94595.09;;;8.95;69.09
6218;BME280;3142;48.206;11.550;2023-04-01T05:05:58;94591.84;;;9.00;68.90
6218;BME280;3142;48.206;11.550;2023-04-01T05:08:25;94587.84;;;8.97;70.02
6218;BME280;3142;48.206;11.550;2023-04-01T05:10:51;94594.78;;;9.03;69.38
6218;BME280;3142;48.206;11.550;2023-04-01T05:13:17;94594.78;;;9.03;69.70
6218;BME280;3142;48.206;11.550;2023-04-01T05:15:45;94576.91;;;9.07;69.56
6218;BME280;3142;48.206;11.550;2023-04-01T05:18:12;94585.53;;;9.07;69.00
6218;BME280;3142;48.206;11.550;2023-04-01T05:20:38;94587.56;;;9.05;68.96
6218;BME280;3142;48.206;11.550;2023-04-01T05:23:05;94583.94;;;9.06;69.46
6218;BME280;3142;48.206;11.550;2023-04-01T05:25:31;94587.72;;;9.10;68.29
6218;BME280;3142;48.206;11.550;2023-04-01T05:27:57;94583.28;;;9.11;69.47
6218;BME280;3142;48.206;11.550;2023-04-01T05:30:24;94586.03;;;9.16;68.32
6218;BME280;3142;48.206;11.550;2023-04-01T05:32:52;94591.41;;;9.21;67.87
6218;BME280;3142;48.206;11.550;2023-04-01T05:35:18;94592.56;;;9.25;67.78
6218;BME280;3142;48.206;11.550;2023-04-01T05:37:44;94591.66;;;9.31;67.50
6218;BME280;3142;48.206;11.550;2023-04-01T05:40:11;94583.13;;;9.24;67.93
6218;BME280;3142;48.206;11.550;2023-04-01T05:42:37;94587.47;;;9.30;67.15
6218;BME280;3142;48.206;11.550;2023-04-01T05:45:05;94585.66;;;9.31;67.55
6218;BME280;3142;48.206;11.550;2023-04-01T05:47:32;94581.44;;;9.30;66.58
6218;BME280;3142;48.206;11.550;2023-04-01T05:49:59;94585.38;;;9.39;66.68
6218;BME280;3142;48.206;11.550;2023-04-01T05:52:26;94585.16;;;9.40;66.53
6218;BME280;3142;48.206;11.550;2023-04-01T05:54:52;94578.91;;;9.41;66.28
6218;BME280;3142;48.206;11.550;2023-04-01T05:57:19;94589.13;;;9.43;66.35
6218;BME280;3142;48.206;11.550;2023-04-01T05:59:46;94573.25;;;9.44;65.61
6218;BME280;3142;48.206;11.550;2023-04-01T06:02:12;94581.28;;;9.43;65.49
6218;BME280;3142;48.206;11.550;2023-04-01T06:04:39;94578.69;;;9.43;65.68
6218;BME280;3142;48.206;11.550;2023-04-01T06:07:12;94591.50;;;9.44;66.20
6218;BME280;3142;48.206;11.550;2023-04-01T06:09:39;94594.28;;;9.49;65.46
6218;BME280;3142;48.206;11.550;2023-04-01T06:12:35;94596.88;;;9.49;65.92
6218;BME280;3142;48.206;11.550;2023-04-01T06:18:00;94593.16;;;9.57;65.14
6218;BME280;3142;48.206;11.550;2023-04-01T06:20:35;94585.47;;;9.62;64.32
6218;BME280;3142;48.206;11.550;2023-04-01T06:23:19;94584.47;;;9.63;65.34
6218;BME280;3142;48.206;11.550;2023-04-01T06:26:02;94579.34;;;9.68;64.72
6218;BME280;3142;48.206;11.550;2023-04-01T06:29:01;94581.16;;;9.68;63.88
6218;BME280;3142;48.206;11.550;2023-04-01T06:31:42;94569.84;;;9.74;64.33
6218;BME280;3142;48.206;11.550;2023-04-01T06:34:30;94588.16;;;9.86;63.73
6218;BME280;3142;48.206;11.550;2023-04-01T06:37:10;94585.13;;;9.89;62.55
6218;BME280;3142;48.206;11.550;2023-04-01T06:39:58;94594.66;;;9.95;62.59
6218;BME280;3142;48.206;11.550;2023-04-01T06:42:52;94585.03;;;10.07;62.55
6218;BME280;3142;48.206;11.550;2023-04-01T06:45:30;94592.19;;;10.12;61.68
6218;BME280;3142;48.206;11.550;2023-04-01T06:48:10;94604.22;;;10.31;61.43
6218;BME280;3142;48.206;11.550;2023-04-01T06:50:46;94582.31;;;10.44;60.40
6218;BME280;3142;48.206;11.550;2023-04-01T06:53:18;94590.84;;;10.74;59.42
6218;BME280;3142;48.206;11.550;2023-04-01T06:55:48;94607.56;;;10.96;58.59
6218;BME280;3142;48.206;11.550;2023-04-01T06:58:21;94588.03;;;11.27;58.36
6218;BME280;3142;48.206;11.550;2023-04-01T07:00:49;94606.72;;;11.08;57.93
6218;BME280;3142;48.206;11.550;2023-04-01T07:03:21;94598.22;;;10.89;57.94
6218;BME280;3142;48.206;11.550;2023-04-01T07:05:48;94592.41;;;10.75;59.08
6218;BME280;3142;48.206;11.550;2023-04-01T07:08:17;94591.50;;;10.81;58.41
6218;BME280;3142;48.206;11.550;2023-04-01T07:10:47;94609.25;;;10.91;58.37
6218;BME280;3142;48.206;11.550;2023-04-01T07:13:19;94603.00;;;10.92;57.91
6218;BME280;3142;48.206;11.550;2023-04-01T07:15:55;94631.31;;;10.72;58.69
6218;BME280;3142;48.206;11.550;2023-04-01T07:18:30;94600.59;;;10.67;59.36
6218;BME280;3142;48.206;11.550;2023-04-01T07:20:58;94596.63;;;10.76;58.85
6218;BME280;3142;48.206;11.550;2023-04-01T07:23:28;94595.72;;;10.71;58.74
6218;BME280;3142;48.206;11.550;2023-04-01T07:26:00;94608.44;;;10.90;58.65
6218;BME280;3142;48.206;11.550;2023-04-01T07:28:31;94616.63;;;10.82;58.34
6218;BME280;3142;48.206;11.550;2023-04-01T07:31:05;94613.59;;;10.74;58.57
6218;BME280;3142;48.206;11.550;2023-04-01T07:33:38;94607.72;;;12.78;54.18
6218;BME280;3142;48.206;11.550;2023-04-01T07:36:10;94583.81;;;13.56;50.94
6218;BME280;3142;48.206;11.550;2023-04-01T07:38:45;94605.00;;;13.45;50.91
6218;BME280;3142;48.206;11.550;2023-04-01T07:41:23;94635.31;;;12.63;51.72
6218;BME280;3142;48.206;11.550;2023-04-01T07:43:59;94610.22;;;12.05;53.62
6218;BME280;3142;48.206;11.550;2023-04-01T07:46:43;94602.81;;;11.74;54.97
6218;BME280;3142;48.206;11.550;2023-04-01T07:49:17;94605.69;;;12.01;55.38
6218;BME280;3142;48.206;11.550;2023-04-01T07:51:55;94612.47;;;11.85;55.12
6218;BME280;3142;48.206;11.550;2023-04-01T07:54:29;94603.81;;;11.84;55.64
6218;BME280;3142;48.206;11.550;2023-04-01T07:57:02;94623.56;;;11.64;55.30
6218;BME280;3142;48.206;11.550;2023-04-01T07:59:40;94626.56;;;11.55;55.82
6218;BME280;3142;48.206;11.550;2023-04-01T08:02:17;94615.13;;;11.73;55.24
6218;BME280;3142;48.206;11.550;2023-04-01T08:04:56;94615.66;;;11.47;55.03
6218;BME280;3142;48.206;11.550;2023-04-01T08:07:31;94624.97;;;11.54;55.36
6218;BME280;3142;48.206;11.550;2023-04-01T08:10:06;94625.59;;;11.33;56.02
6218;BME280;3142;48.206;11.550;2023-04-01T08:12:45;94607.03;;;11.23;55.93
6218;BME280;3142;48.206;11.550;2023-04-01T08:15:20;94617.31;;;11.24;56.02
6218;BME280;3142;48.206;11.550;2023-04-01T08:17:59;94619.69;;;11.26;55.53
6218;BME280;3142;48.206;11.550;2023-04-01T08:20:34;94608.81;;;11.46;55.33
6218;BME280;3142;48.206;11.550;2023-04-01T08:23:07;94614.97;;;11.51;54.66
6218;BME280;3142;48.206;11.550;2023-04-01T08:25:39;94608.25;;;12.12;53.24
6218;BME280;3142;48.206;11.550;2023-04-01T08:28:15;94606.75;;;12.16;53.46
6218;BME280;3142;48.206;11.550;2023-04-01T08:30:47;94609.97;;;12.35;52.77
6218;BME280;3142;48.206;11.550;2023-04-01T08:33:17;94585.22;;;12.65;51.91
6218;BME280;3142;48.206;11.550;2023-04-01T08:35:50;94594.22;;;13.24;50.14
6218;BME280;3142;48.206;11.550;2023-04-01T08:38:23;94583.06;;;14.10;49.12
6218;BME280;3142;48.206;11.550;2023-04-01T08:41:00;94577.09;;;13.92;48.55
6218;BME280;3142;48.206;11.550;2023-04-01T08:43:45;94592.13;;;13.70;48.59
6218;BME280;3142;48.206;11.550;2023-04-01T08:46:49;94587.19;;;13.30;50.61
6218;BME280;3142;48.206;11.550;2023-04-01T08:49:54;94588.53;;;12.94;50.11
6218;BME280;3142;48.206;11.550;2023-04-01T08:52:30;94583.22;;;12.72;52.02
6218;BME280;3142;48.206;11.550;2023-04-01T08:55:22;94576.22;;;12.61;51.01
6218;BME280;3142;48.206;11.550;2023-04-01T08:58:06;94593.16;;;13.25;50.16
6218;BME280;3142;48.206;11.550;2023-04-01T09:00:46;94602.59;;;12.88;50.01
6218;BME280;3142;48.206;11.550;2023-04-01T09:03:22;94590.38;;;12.93;50.41
6218;BME280;3142;48.206;11.550;2023-04-01T09:06:26;94581.56;;;13.65;48.38
6218;BME280;3142;48.206;11.550;2023-04-01T09:09:32;94587.34;;;14.16;47.58
6218;BME280;3142;48.206;11.550;2023-04-01T09:12:28;94572.91;;;15.40;45.49
6218;BME280;3142;48.206;11.550;2023-04-01T09:15:20;94579.22;;;16.27;42.88
6218;BME280;3142;48.206;11.550;2023-04-01T09:23:57;94575.00;;;13.68;48.14
6218;BME280;3142;48.206;11.550;2023-04-01T09:26:36;94557.81;;;13.33;49.04
6218;BME280;3142;48.206;11.550;2023-04-01T09:29:15;94576.94;;;13.12;50.00
6218;BME280;3142;48.206;11.550;2023-04-01T09:31:58;94577.03;;;13.00;49.25
6218;BME280;3142;48.206;11.550;2023-04-01T09:34:45;94568.25;;;12.89;50.14
6218;BME280;3142;48.206;11.550;2023-04-01T09:37:21;94562.91;;;12.84;51.39
6218;BME280;3142;48.206;11.550;2023-04-01T09:40:08;94569.63;;;12.75;51.47
6218;BME280;3142;48.206;11.550;2023-04-01T09:42:43;94562.38;;;12.82;50.36
6218;BME280;3142;48.206;11.550;2023-04-01T09:45:24;94551.81;;;12.99;49.19
6218;BME280;3142;48.206;11.550;2023-04-01T09:48:03;94559.22;;;13.89;48.30
6218;BME280;3142;48.206;11.550;2023-04-01T09:50:36;94560.09;;;13.73;48.59
6218;BME280;3142;48.206;11.550;2023-04-01T09:53:24;94559.44;;;13.61;49.09
6218;BME280;3142;48.206;11.550;2023-04-01T09:56:21;94562.38;;;13.91;47.95
6218;BME280;3142;48.206;11.550;2023-04-01T10:02:11;94548.56;;;13.52;48.48
6218;BME280;3142;48.206;11.550;2023-04-01T10:05:04;94541.75;;;13.56;49.29
6218;BME280;3142;48.206;11.550;2023-04-01T10:07:59;94552.31;;;13.34;49.06
6218;BME280;3142;48.206;11.550;2023-04-01T10:11:05;94551.28;;;13.36;49.54
6218;BME280;3142;48.206;11.550;2023-04-01T10:13:53;94550.75;;;13.17;49.53
6218;BME280;3142;48.206;11.550;2023-04-01T10:19:44;94546.34;;;13.00;50.97
6218;BME280;3142;48.206;11.550;2023-04-01T10:22:28;94550.97;;;13.15;49.36
6218;BME280;3142;48.206;11.550;2023-04-01T10:25:24;94547.47;;;13.04;50.93
6218;BME280;3142;48.206;11.550;2023-04-01T10:28:08;94555.38;;;13.10;50.72
6218;BME280;3142;48.206;11.550;2023-04-01T10:34:13;94547.22;;;13.50;49.29
6218;BME280;3142;48.206;11.550;2023-04-01T10:36:53;94547.56;;;13.31;50.17
6218;BME280;3142;48.206;11.550;2023-04-01T10:39:33;94550.44;;;13.13;50.70
6218;BME280;3142;48.206;11.550;2023-04-01T10:42:38;94541.22;;;13.11;50.65
6218;BME280;3142;48.206;11.550;2023-04-01T10:45:30;94547.63;;;12.98;51.03
6218;BME280;3142;48.206;11.550;2023-04-01T10:48:21;94573.81;;;12.93;52.89
6218;BME280;3142;48.206;11.550;2023-04-01T10:51:08;94565.47;;;12.79;51.28
6218;BME280;3142;48.206;11.550;2023-04-01T10:53:44;94558.19;;;12.64;52.74
6218;BME280;3142;48.206;11.550;2023-04-01T10:56:34;94557.00;;;12.55;52.99
6218;BME280;3142;48.206;11.550;2023-04-01T10:59:45;94582.38;;;12.50;52.95
6218;BME280;3142;48.206;11.550;2023-04-01T11:06:05;94559.22;;;12.30;54.37
6218;BME280;3142;48.206;11.550;2023-04-01T11:09:10;94549.63;;;12.35;55.00
6218;BME280;3142;48.206;11.550;2023-04-01T11:12:11;94565.50;;;12.29;56.28
6218;BME280;3142;48.206;11.550;2023-04-01T11:18:20;94592.53;;;12.80;56.06
6218;BME280;3142;48.206;11.550;2023-04-01T11:21:22;94587.19;;;12.91;54.89
6218;BME280;3142;48.206;11.550;2023-04-01T11:24:13;94568.81;;;13.13;54.79
6218;BME280;3142;48.206;11.550;2023-04-01T11:26:52;94561.06;;;13.18;54.93
6218;BME280;3142;48.206;11.550;2023-04-01T11:29:36;94570.19;;;13.16;55.19
6218;BME280;3142;48.206;11.550;2023-04-01T11:32:13;94580.78;;;13.04;56.01
6218;BME280;3142;48.206;11.550;2023-04-01T11:35:00;94585.53;;;12.68;57.27
6218;BME280;3142;48.206;11.550;2023-04-01T11:37:37;94596.28;;;12.50;57.84
6218;BME280;3142;48.206;11.550;2023-04-01T11:40:17;94583.16;;;12.33;59.57
6218;BME280;3142;48.206;11.550;2023-04-01T11:42:55;94599.44;;;12.19;60.06
6218;BME280;3142;48.206;11.550;2023-04-01T11:45:35;94615.47;;;12.05;60.08
6218;BME280;3142;48.206;11.550;2023-04-01T11:48:16;94608.78;;;11.98;62.50
6218;BME280;3142;48.206;11.550;2023-04-01T11:50:56;94629.78;;;11.86;63.53
6218;BME280;3142;48.206;11.550;2023-04-01T11:53:36;94639.16;;;11.82;63.61
6218;BME280;3142;48.206;11.550;2023-04-01T11:56:15;94624.97;;;11.54;65.05
6218;BME280;3142;48.206;11.550;2023-04-01T11:58:56;94636.59;;;11.47;64.62
6218;BME280;3142;48.206;11.550;2023-04-01T12:01:30;94633.91;;;11.30;66.38
6218;BME280;3142;48.206;11.550;2023-04-01T12:04:11;94621.75;;;11.24;66.82
6218;BME280;3142;48.206;11.550;2023-04-01T12:06:48;94612.19;;;11.18;66.99
6218;BME280;3142;48.206;11.550;2023-04-01T12:09:24;94619.25;;;11.17;66.48
6218;BME280;3142;48.206;11.550;2023-04-01T12:12:03;94608.31;;;11.09;67.12
6218;BME280;3142;48.206;11.550;2023-04-01T12:14:41;94615.03;;;11.05;68.29
6218;BME280;3142;48.206;11.550;2023-04-01T12:17:19;94618.81;;;10.97;68.17
6218;BME280;3142;48.206;11.550;2023-04-01T12:19:58;94622.78;;;11.00;69.39
6218;BME280;3142;48.206;11.550;2023-04-01T12:22:34;94618.81;;;10.97;67.96
6218;BME280;3142;48.206;11.550;2023-04-01T12:25:20;94622.78;;;10.88;68.04
6218;BME280;3142;48.206;11.550;2023-04-01T12:28:03;94617.22;;;10.84;68.69
6218;BME280;3142;48.206;11.550;2023-04-01T12:31:00;94622.00;;;10.76;67.55
6218;BME280;3142;48.206;11.550;2023-04-01T12:33:41;94613.00;;;10.72;68.11
6218;BME280;3142;48.206;11.550;2023-04-01T12:36:23;94626.66;;;10.74;68.72
6218;BME280;3142;48.206;11.550;2023-04-01T12:39:08;94612.88;;;10.78;68.36
6218;BME280;3142;48.206;11.550;2023-04-01T12:41:49;94613.34;;;10.63;67.89
6218;BME280;3142;48.206;11.550;2023-04-01T12:44:40;94615.63;;;10.60;68.51
6218;BME280;3142;48.206;11.550;2023-04-01T12:47:20;94623.69;;;10.58;68.53
6218;BME280;3142;48.206;11.550;2023-04-01T12:49:56;94621.31;;;10.57;67.73
6218;BME280;3142;48.206;11.550;2023-04-01T12:52:42;94636.41;;;10.55;68.04
6218;BME280;3142;48.206;11.550;2023-04-01T12:55:35;94615.16;;;10.51;68.15
6218;BME280;3142;48.206;11.550;2023-04-01T12:58:34;94626.06;;;10.48;68.27
6218;BME280;3142;48.206;11.550;2023-04-01T13:04:34;94616.31;;;10.55;68.28
6218;BME280;3142;48.206;11.550;2023-04-01T13:07:17;94628.69;;;10.60;66.92
6218;BME280;3142;48.206;11.550;2023-04-01T13:09:53;94623.78;;;10.52;67.61
6218;BME280;3142;48.206;11.550;2023-04-01T13:12:34;94627.19;;;10.52;67.41
6218;BME280;3142;48.206;11.550;2023-04-01T13:15:13;94626.41;;;10.52;67.69
6218;BME280;3142;48.206;11.550;2023-04-01T13:17:49;94622.19;;;10.51;67.08
6218;BME280;3142;48.206;11.550;2023-04-01T13:20:27;94627.44;;;10.51;67.83
6218;BME280;3142;48.206;11.550;2023-04-01T13:23:06;94640.63;;;10.56;67.75
6218;BME280;3142;48.206;11.550;2023-04-01T13:25:40;94642.78;;;10.47;67.99
6218;BME280;3142;48.206;11.550;2023-04-01T13:28:15;94630.16;;;10.44;68.13
6218;BME280;3142;48.206;11.550;2023-04-01T13:30:49;94629.47;;;10.49;68.30
6218;BME280;3142;48.206;11.550;2023-04-01T13:33:24;94627.19;;;10.52;68.57
6218;BME280;3142;48.206;11.550;2023-04-01T13:36:05;94647.22;;;10.58;68.03
6218;BME280;3142;48.206;11.550;2023-04-01T13:38:51;94643.03;;;10.57;68.65
6218;BME280;3142;48.206;11.550;2023-04-01T13:41:33;94637.34;;;10.60;68.76
6218;BME280;3142;48.206;11.550;2023-04-01T13:44:10;94634.63;;;10.55;68.84
6218;BME280;3142;48.206;11.550;2023-04-01T13:47:01;94639.16;;;10.60;69.27
6218;BME280;3142;48.206;11.550;2023-04-01T13:49:45;94640.75;;;10.61;68.84
6218;BME280;3142;48.206;11.550;2023-04-01T13:52:27;94644.38;;;10.60;68.88
6218;BME280;3142;48.206;11.550;2023-04-01T13:55:16;94645.19;;;10.60;69.44
6218;BME280;3142;48.206;11.550;2023-04-01T13:57:56;94620.41;;;10.63;69.82
6218;BME280;3142;48.206;11.550;2023-04-01T14:00:36;94622.69;;;10.71;68.57
6218;BME280;3142;48.206;11.550;2023-04-01T14:03:32;94637.22;;;10.67;68.54
6218;BME280;3142;48.206;11.550;2023-04-01T14:06:19;94644.50;;;10.77;69.25
6218;BME280;3142;48.206;11.550;2023-04-01T14:09:04;94625.31;;;10.71;69.03
6218;BME280;3142;48.206;11.550;2023-04-01T14:11:39;94641.56;;;10.73;68.43
6218;BME280;3142;48.206;11.550;2023-04-01T14:14:19;94643.84;;;10.70;68.39
6218;BME280;3142;48.206;11.550;2023-04-01T14:17:13;94625.63;;;10.75;68.42
6218;BME280;3142;48.206;11.550;2023-04-01T14:19:53;94628.47;;;10.73;68.58
6218;BME280;3142;48.206;11.550;2023-04-01T14:22:33;94635.88;;;10.76;68.03
6218;BME280;3142;48.206;11.550;2023-04-01T14:25:23;94631.09;;;10.73;67.93
6218;BME280;3142;48.206;11.550;2023-04-01T14:28:06;94631.19;;;10.78;68.21
6218;BME280;3142;48.206;11.550;2023-04-01T14:30:50;94649.88;;;10.70;68.06